This is the latest recevied weather packets stored in our database for station/object DB7GV-8. If no packets are shown the sender has not sent any weather packets the latest 10 day(s).
| Time | Temp. | Humidity | Pressure | Rain* | Wind** | Luminosity | Snow |
|---|---|---|---|---|---|---|---|
| 1777602657 | 4.44° C | 52% | 1025.1 hPa | - | - | - | - |
| 1777601751 | 4.44° C | 51% | 1025.1 hPa | - | - | - | - |
| 1777600846 | 5° C | 50% | 1025.1 hPa | - | - | - | - |
| 1777599941 | 5.56° C | 49% | 1025.1 hPa | - | - | - | - |
| 1777599036 | 5.56° C | 47% | 1024.9 hPa | - | - | - | - |
| 1777598129 | 6.11° C | 45% | 1024.8 hPa | - | - | - | - |
| 1777597224 | 6.11° C | 47% | 1024.9 hPa | - | - | - | - |
| 1777596319 | 6.67° C | 45% | 1024.9 hPa | - | - | - | - |
| 1777595418 | 6.67° C | 45% | 1024.9 hPa | - | - | - | - |
| 1777592698 | 8.33° C | 39% | 1024.8 hPa | - | - | - | - |
| 1777591791 | 8.89° C | 37% | 1024.7 hPa | - | - | - | - |
| 1777590886 | 8.33° C | 40% | 1024.8 hPa | - | - | - | - |
| 1777589981 | 7.78° C | 43% | 1024.8 hPa | - | - | - | - |
| 1777589075 | 7.78° C | 43% | 1024.9 hPa | - | - | - | - |
| 1777588170 | 7.78° C | 42% | 1024.8 hPa | - | - | - | - |
| 1777587265 | 8.33° C | 41% | 1024.8 hPa | - | - | - | - |
| 1777586360 | 8.89° C | 39% | 1024.8 hPa | - | - | - | - |
| 1777585453 | 8.33° C | 41% | 1024.7 hPa | - | - | - | - |
| 1777584548 | 8.33° C | 41% | 1024.6 hPa | - | - | - | - |
| 1777583643 | 8.89° C | 39% | 1024.5 hPa | - | - | - | - |
| 1777582737 | 10° C | 36% | 1024.5 hPa | - | - | - | - |
| 1777581832 | 10.56° C | 33% | 1024.4 hPa | - | - | - | - |
| 1777580927 | 10.56° C | 33% | 1024.3 hPa | - | - | - | - |
| 1777580021 | 10.56° C | 38% | 1024.4 hPa | - | - | - | - |
| 1777579116 | 10.56° C | 38% | 1024.3 hPa | - | - | - | - |
* Rain since midnight (hover to see other rain measurements)
** Current wind speed in m/s (hover to see current wind gust speed)